Time;durP1;ratioP1;P1;durP2;ratioP2;P2;SDS_P1;SDS_P2;PMS_P1;PMS_P2;Temp;Humidity;BMP_temperature;BMP_pressure;BME280_temperature;BME280_humidity;BME280_pressure;Samples;Min_cycle;Max_cycle;Signal;HPM_P1;HPM_P2
2023/05/31 00:00:17;;;;;;;6.25;3.33;;;12.10;83.90;;;;;;5038290;28;20069;-81
2023/05/31 00:02:43;;;;;;;5.40;3.47;;;12.10;84.20;;;;;;5038250;28;20107;-81
2023/05/31 00:05:09;;;;;;;6.28;3.45;;;12.10;84.00;;;;;;5021682;28;20467;-81
2023/05/31 00:07:34;;;;;;;6.00;3.70;;;12.00;84.40;;;;;;5022018;28;20033;-81
2023/05/31 00:10:00;;;;;;;6.22;3.45;;;12.00;84.30;;;;;;5021700;28;20037;-81
2023/05/31 00:12:26;;;;;;;6.80;3.97;;;12.00;84.40;;;;;;5035316;28;20050;-81
2023/05/31 00:14:52;;;;;;;9.45;3.92;;;12.00;84.40;;;;;;5018184;28;20095;-81
2023/05/31 00:17:17;;;;;;;8.20;3.67;;;12.00;84.60;;;;;;5017864;28;20128;-81
2023/05/31 00:19:43;;;;;;;8.00;3.70;;;12.00;84.60;;;;;;5018445;28;20379;-81
2023/05/31 00:22:10;;;;;;;8.88;4.13;;;12.00;84.60;;;;;;5034786;28;20037;-81
2023/05/31 00:24:36;;;;;;;6.95;3.80;;;11.90;84.50;;;;;;5035070;28;20041;-81
2023/05/31 00:27:02;;;;;;;6.97;3.80;;;11.90;84.60;;;;;;5035019;28;20041;-81
2023/05/31 00:29:28;;;;;;;7.78;4.00;;;11.80;84.80;;;;;;5018381;28;20516;-80
2023/05/31 00:31:54;;;;;;;10.55;4.20;;;11.70;85.00;;;;;;5034755;28;20044;-81
2023/05/31 00:34:20;;;;;;;10.18;4.72;;;11.70;84.90;;;;;;5018323;28;20112;-80
2023/05/31 00:36:45;;;;;;;11.55;5.05;;;11.60;85.00;;;;;;5034588;28;20049;-81
2023/05/31 00:39:11;;;;;;;11.32;4.60;;;11.50;85.10;;;;;;5001960;28;20045;-81
2023/05/31 00:41:37;;;;;;;6.20;4.32;;;11.50;85.10;;;;;;5034434;28;20037;-81
2023/05/31 00:44:02;;;;;;;7.63;4.03;;;11.40;85.20;;;;;;5018043;28;20037;-81
2023/05/31 00:46:32;;;;;;;9.32;4.45;;;11.40;85.30;;;;;;5017940;28;20073;-81
2023/05/31 00:48:58;;;;;;;8.23;4.65;;;11.30;85.20;;;;;;5017823;28;20041;-81
2023/05/31 00:51:29;;;;;;;7.90;4.70;;;11.20;85.30;;;;;;5017977;28;20091;-81
2023/05/31 00:53:56;;;;;;;9.52;4.72;;;11.10;85.40;;;;;;5034651;28;20045;-81
2023/05/31 00:56:22;;;;;;;9.98;4.63;;;11.00;85.60;;;;;;5034303;28;20072;-81
2023/05/31 00:58:49;;;;;;;12.45;5.55;;;11.00;85.60;;;;;;5017855;28;20453;-80
2023/05/31 01:01:15;;;;;;;13.18;6.15;;;11.00;85.70;;;;;;5034242;28;20128;-81
2023/05/31 01:03:41;;;;;;;10.52;4.78;;;10.90;85.90;;;;;;5034054;28;20136;-82
2023/05/31 01:06:10;;;;;;;8.32;4.88;;;10.90;86.00;;;;;;5017574;28;20041;-80
2023/05/31 01:08:36;;;;;;;6.78;4.80;;;10.80;85.90;;;;;;5033997;28;20045;-81
2023/05/31 01:11:12;;;;;;;8.88;5.10;;;10.80;86.00;;;;;;5017711;28;20076;-81
2023/05/31 01:13:46;;;;;;;12.88;5.35;;;10.70;86.10;;;;;;5033959;28;20580;-80
2023/05/31 01:16:21;;;;;;;11.25;5.70;;;10.70;86.10;;;;;;5034049;28;20081;-81
2023/05/31 01:19:00;;;;;;;8.88;4.95;;;10.70;86.20;;;;;;5034135;28;20428;-81
2023/05/31 01:21:42;;;;;;;7.97;5.18;;;10.70;86.30;;;;;;5034121;28;20080;-81
2023/05/31 01:24:22;;;;;;;9.50;5.32;;;10.60;86.40;;;;;;5017658;28;20424;-80
2023/05/31 01:26:50;;;;;;;12.23;5.07;;;10.60;86.40;;;;;;5017383;28;20080;-81
2023/05/31 01:29:23;;;;;;;9.00;4.85;;;10.60;86.50;;;;;;5033624;28;20053;-81
2023/05/31 01:31:51;;;;;;;9.25;5.28;;;10.60;86.50;;;;;;5033562;28;20433;-80
2023/05/31 01:34:17;;;;;;;10.43;5.10;;;10.60;86.60;;;;;;5017070;28;20045;-81
2023/05/31 01:36:42;;;;;;;6.40;3.95;;;10.60;86.70;;;;;;5017075;28;20128;-80
2023/05/31 01:39:10;;;;;;;9.50;5.50;;;10.60;86.70;;;;;;5017060;28;20452;-81
2023/05/31 01:41:42;;;;;;;10.95;5.00;;;10.60;86.70;;;;;;5001286;28;20049;-82
2023/05/31 01:44:10;;;;;;;11.82;5.43;;;10.60;86.70;;;;;;5033370;28;20124;-80
2023/05/31 01:46:36;;;;;;;11.32;5.53;;;10.60;86.80;;;;;;5033240;28;20045;-81
2023/05/31 01:49:02;;;;;;;9.18;5.03;;;10.60;86.80;;;;;;5033265;28;20041;-81
2023/05/31 01:51:33;;;;;;;10.77;5.32;;;10.60;86.80;;;;;;5033190;28;20038;-82
2023/05/31 01:53:59;;;;;;;11.77;6.03;;;10.60;86.80;;;;;;5017526;28;20045;-81
2023/05/31 01:56:28;;;;;;;12.27;6.50;;;10.60;86.90;;;;;;5033028;28;20133;-81
2023/05/31 01:58:55;;;;;;;8.00;4.97;;;10.60;87.00;;;;;;5033431;28;20084;-81
2023/05/31 02:01:22;;;;;;;7.47;4.68;;;10.60;87.10;;;;;;5033015;28;20117;-80
2023/05/31 02:03:51;;;;;;;10.95;5.75;;;10.50;87.00;;;;;;5016354;28;20132;-80
2023/05/31 02:06:17;;;;;;;11.05;6.22;;;10.60;87.00;;;;;;5016456;28;20049;-81
2023/05/31 02:08:43;;;;;;;11.32;5.38;;;10.60;87.00;;;;;;5033166;28;20033;-81
2023/05/31 02:11:09;;;;;;;10.43;5.15;;;10.60;87.00;;;;;;5016458;28;20482;-80
2023/05/31 02:13:35;;;;;;;13.07;5.88;;;10.60;87.10;;;;;;5016407;28;20124;-82
2023/05/31 02:16:03;;;;;;;12.32;5.75;;;10.50;87.20;;;;;;5000075;28;20179;-80
2023/05/31 02:18:30;;;;;;;11.95;6.28;;;10.50;87.20;;;;;;5016648;28;20037;-80
2023/05/31 02:20:55;;;;;;;13.15;6.53;;;10.50;87.20;;;;;;5032754;28;20041;-81
2023/05/31 02:23:22;;;;;;;13.27;6.43;;;10.50;87.20;;;;;;5032715;28;20049;-81
2023/05/31 02:25:48;;;;;;;11.68;6.28;;;10.50;87.40;;;;;;5016241;28;20041;-81
2023/05/31 02:28:15;;;;;;;16.60;6.97;;;10.50;87.60;;;;;;5032643;28;20041;-81
2023/05/31 02:30:40;;;;;;;12.27;7.05;;;10.40;87.60;;;;;;5032657;28;20489;-81
2023/05/31 02:33:07;;;;;;;16.73;8.27;;;10.40;87.50;;;;;;5016083;28;20072;-81
2023/05/31 02:35:33;;;;;;;14.25;7.43;;;10.40;87.70;;;;;;5031937;28;20088;-80
2023/05/31 02:37:59;;;;;;;11.98;6.78;;;10.40;87.70;;;;;;5016266;28;20049;-81
2023/05/31 02:40:25;;;;;;;13.38;7.30;;;10.30;87.90;;;;;;5032671;28;20049;-80
2023/05/31 02:42:51;;;;;;;9.65;5.22;;;10.30;88.00;;;;;;5015869;28;20490;-80
2023/05/31 02:45:17;;;;;;;12.95;6.30;;;10.30;88.00;;;;;;5016215;28;20068;-80
2023/05/31 02:47:43;;;;;;;11.45;5.75;;;10.30;87.80;;;;;;5032495;28;20474;-79
2023/05/31 02:50:09;;;;;;;13.45;7.78;;;10.30;88.00;;;;;;5032537;28;20478;-80
2023/05/31 02:52:38;;;;;;;14.68;7.22;;;10.30;87.90;;;;;;5016409;28;20394;-81
2023/05/31 02:55:05;;;;;;;11.43;6.90;;;10.30;87.90;;;;;;5016261;28;20042;-81
2023/05/31 02:57:31;;;;;;;13.85;6.68;;;10.30;88.00;;;;;;5032520;28;20049;-81
2023/05/31 03:00:11;;;;;;;16.77;7.90;;;10.20;88.10;;;;;;5032483;28;20045;-81
2023/05/31 03:02:38;;;;;;;13.77;7.65;;;10.20;88.20;;;;;;5031944;28;20057;-81
2023/05/31 03:05:05;;;;;;;10.60;6.50;;;10.10;88.40;;;;;;5048790;28;20045;-80
2023/05/31 03:07:30;;;;;;;14.25;7.30;;;10.10;88.50;;;;;;5015930;28;20041;-81
2023/05/31 03:09:56;;;;;;;15.10;8.18;;;10.10;88.50;;;;;;5031954;28;20042;-81
2023/05/31 03:12:22;;;;;;;12.98;6.90;;;10.00;88.50;;;;;;5000250;28;20046;-81
2023/05/31 03:14:47;;;;;;;13.63;7.55;;;10.00;88.70;;;;;;5000036;28;20081;-80
2023/05/31 03:17:13;;;;;;;16.42;8.15;;;10.00;88.90;;;;;;5014936;28;20124;-81
2023/05/31 03:19:38;;;;;;;11.23;6.75;;;9.90;88.80;;;;;;5030891;28;20456;-80
2023/05/31 03:22:04;;;;;;;13.85;7.38;;;10.00;88.90;;;;;;5015004;28;20044;-81
2023/05/31 03:24:30;;;;;;;15.48;7.38;;;9.90;89.00;;;;;;4999486;28;20083;-81
2023/05/31 03:26:56;;;;;;;15.82;7.72;;;9.90;88.80;;;;;;5032192;28;20103;-81
2023/05/31 03:29:22;;;;;;;13.45;7.80;;;9.90;88.90;;;;;;5000329;28;20075;-81
2023/05/31 03:31:47;;;;;;;13.95;7.88;;;9.80;88.90;;;;;;5016194;28;20045;-81
2023/05/31 03:34:13;;;;;;;12.98;7.05;;;9.80;89.20;;;;;;5015777;28;20049;-81
2023/05/31 03:36:39;;;;;;;20.13;8.10;;;9.80;89.00;;;;;;5015515;28;20042;-81
2023/05/31 03:39:05;;;;;;;15.88;8.02;;;9.80;89.00;;;;;;5032383;28;20045;-81
2023/05/31 03:41:31;;;;;;;17.10;8.45;;;9.70;89.10;;;;;;5000473;28;20045;-81
2023/05/31 03:43:57;;;;;;;14.35;8.20;;;9.70;89.20;;;;;;4999372;28;20037;-81
2023/05/31 03:46:23;;;;;;;14.73;8.43;;;9.70;89.30;;;;;;5032308;28;20064;-82
2023/05/31 03:48:49;;;;;;;13.35;7.78;;;9.70;89.30;;;;;;5038368;28;20042;-81
2023/05/31 03:51:16;;;;;;;13.02;7.00;;;9.70;89.50;;;;;;5020573;28;20436;-81
2023/05/31 03:53:41;;;;;;;16.88;8.23;;;9.70;89.30;;;;;;5019405;28;20041;-81
2023/05/31 03:56:07;;;;;;;14.57;7.07;;;9.80;89.40;;;;;;5018768;28;20068;-80
2023/05/31 03:58:33;;;;;;;18.40;9.45;;;9.70;89.40;;;;;;5035806;28;20044;-81
2023/05/31 04:00:58;;;;;;;13.27;7.97;;;9.80;89.60;;;;;;5018861;28;20038;-81
2023/05/31 04:03:24;;;;;;;18.52;8.27;;;9.80;89.70;;;;;;5035115;28;20476;-81
2023/05/31 04:05:51;;;;;;;12.07;6.60;;;9.80;89.50;;;;;;5018946;28;20481;-81
2023/05/31 04:08:17;;;;;;;15.80;8.15;;;9.90;89.50;;;;;;5019089;28;20038;-81
2023/05/31 04:10:43;;;;;;;18.15;9.23;;;9.80;89.70;;;;;;5019792;28;20452;-81
2023/05/31 04:13:08;;;;;;;18.88;8.82;;;9.90;89.60;;;;;;5036482;28;20080;-81
2023/05/31 04:15:35;;;;;;;16.80;8.35;;;9.90;89.90;;;;;;5022708;28;20045;-81
2023/05/31 04:18:01;;;;;;;13.25;8.93;;;10.00;89.70;;;;;;5035974;28;20051;-81
2023/05/31 04:20:27;;;;;;;12.98;8.00;;;10.00;89.80;;;;;;5039589;28;20060;-81
2023/05/31 04:22:53;;;;;;;16.38;8.10;;;10.00;89.80;;;;;;5060681;28;20033;-81
2023/05/31 04:25:19;;;;;;;17.48;8.43;;;10.00;89.80;;;;;;5044500;28;20105;-80
2023/05/31 04:27:46;;;;;;;16.48;8.05;;;10.10;89.70;;;;;;5044235;28;20048;-80
2023/05/31 04:30:12;;;;;;;13.55;7.53;;;10.10;89.70;;;;;;5060539;28;20032;-81
2023/05/31 04:32:39;;;;;;;15.20;8.38;;;10.10;89.80;;;;;;5038293;28;20057;-81
2023/05/31 04:35:06;;;;;;;14.60;8.10;;;10.20;90.00;;;;;;5052160;28;20072;-80
2023/05/31 04:37:32;;;;;;;22.02;8.48;;;10.20;90.00;;;;;;5035958;28;20051;-80
2023/05/31 04:39:59;;;;;;;18.08;8.30;;;10.20;89.90;;;;;;5035941;28;20033;-82
2023/05/31 04:42:27;;;;;;;14.23;7.68;;;10.30;90.00;;;;;;5040585;28;20048;-82
2023/05/31 04:44:57;;;;;;;16.70;8.38;;;10.30;90.00;;;;;;5018212;28;20505;-79
2023/05/31 04:47:35;;;;;;;9.85;6.70;;;10.40;90.10;;;;;;5018576;28;20555;-80
2023/05/31 04:50:01;;;;;;;14.52;7.68;;;10.40;90.10;;;;;;5034661;28;20088;-80
2023/05/31 04:52:32;;;;;;;17.75;7.93;;;10.50;90.20;;;;;;4998659;28;20064;-80
2023/05/31 04:54:59;;;;;;;17.23;8.32;;;10.50;90.10;;;;;;5014875;28;20498;-80
2023/05/31 04:57:29;;;;;;;17.67;7.88;;;10.60;90.10;;;;;;4981773;28;20042;-80
2023/05/31 04:59:58;;;;;;;15.25;8.52;;;10.60;90.30;;;;;;4998299;28;20144;-79
2023/05/31 05:02:24;;;;;;;16.67;8.65;;;10.70;90.30;;;;;;5014279;28;20058;-80
2023/05/31 05:04:50;;;;;;;8.93;6.68;;;10.70;90.30;;;;;;4991567;28;20044;-79
2023/05/31 05:07:16;;;;;;;13.10;7.15;;;10.80;90.20;;;;;;5034074;28;20041;-80
2023/05/31 05:09:42;;;;;;;13.85;8.95;;;10.80;90.30;;;;;;5034341;28;20041;-80
2023/05/31 05:12:09;;;;;;;18.27;8.85;;;10.90;90.30;;;;;;5034223;28;20398;-79
2023/05/31 05:14:34;;;;;;;11.30;7.00;;;11.00;90.30;;;;;;5034043;28;20057;-80
2023/05/31 05:17:00;;;;;;;15.23;7.60;;;11.10;90.40;;;;;;5017473;28;20107;-80
2023/05/31 05:19:26;;;;;;;14.68;8.10;;;11.20;90.40;;;;;;5017606;28;20547;-80
2023/05/31 05:21:52;;;;;;;14.82;8.70;;;11.40;90.50;;;;;;5017239;28;20428;-79
2023/05/31 05:24:17;;;;;;;15.20;7.63;;;11.50;90.60;;;;;;5017382;28;20033;-79
2023/05/31 05:26:44;;;;;;;18.73;9.68;;;11.60;90.60;;;;;;5033620;28;20041;-80
2023/05/31 05:29:09;;;;;;;22.35;8.95;;;11.70;90.70;;;;;;5050610;28;20045;-79
2023/05/31 05:31:35;;;;;;;16.63;8.55;;;11.90;90.90;;;;;;5017835;28;20075;-80
2023/05/31 05:34:01;;;;;;;18.40;9.63;;;12.00;91.00;;;;;;5033562;28;20045;-80
2023/05/31 05:36:27;;;;;;;17.92;9.13;;;12.00;91.00;;;;;;5033464;28;20053;-80
2023/05/31 05:38:52;;;;;;;19.35;9.38;;;12.10;91.00;;;;;;5017211;28;20076;-79
2023/05/31 05:41:18;;;;;;;16.20;8.15;;;12.20;91.00;;;;;;5033549;28;20077;-79
2023/05/31 05:43:44;;;;;;;18.95;8.23;;;12.30;91.30;;;;;;5033586;28;20041;-80
2023/05/31 05:46:09;;;;;;;16.23;8.55;;;12.40;91.10;;;;;;5033188;28;20037;-79
2023/05/31 05:48:35;;;;;;;22.48;9.90;;;12.50;91.10;;;;;;5033235;28;20041;-80
2023/05/31 05:51:02;;;;;;;14.98;7.43;;;12.50;90.90;;;;;;5016788;28;20048;-78
2023/05/31 05:53:27;;;;;;;13.23;8.00;;;12.60;91.00;;;;;;5033473;28;20408;-79
2023/05/31 05:55:54;;;;;;;15.73;8.07;;;12.70;91.00;;;;;;5049586;28;20041;-79
2023/05/31 05:58:20;;;;;;;15.73;8.73;;;12.80;91.10;;;;;;5033197;28;20041;-78
2023/05/31 06:00:46;;;;;;;14.90;8.52;;;12.90;90.90;;;;;;5033772;28;20033;-79
2023/05/31 06:03:13;;;;;;;16.67;8.63;;;12.90;90.80;;;;;;5033612;28;20053;-79
2023/05/31 06:05:40;;;;;;;16.23;8.45;;;13.00;90.80;;;;;;5033870;28;20496;-79
2023/05/31 06:08:06;;;;;;;16.58;8.05;;;13.00;90.60;;;;;;5017093;28;20110;-80
2023/05/31 06:10:32;;;;;;;19.20;9.20;;;13.10;90.40;;;;;;5015874;28;20495;-80
2023/05/31 06:12:57;;;;;;;15.60;8.55;;;13.20;90.10;;;;;;5016469;28;20045;-80
2023/05/31 06:15:23;;;;;;;26.00;9.82;;;13.20;89.90;;;;;;5032993;28;20064;-80
2023/05/31 06:17:49;;;;;;;19.90;9.68;;;13.30;89.80;;;;;;5032981;28;20038;-81
2023/05/31 06:20:15;;;;;;;19.63;9.82;;;13.30;89.80;;;;;;5016804;28;20041;-81
2023/05/31 06:22:41;;;;;;;21.27;7.93;;;13.40;89.60;;;;;;5032933;28;20068;-80
2023/05/31 06:25:08;;;;;;;16.75;9.63;;;13.50;89.60;;;;;;5049632;28;20033;-80
2023/05/31 06:27:34;;;;;;;14.23;9.82;;;13.60;89.40;;;;;;5049330;28;20048;-79
2023/05/31 06:30:00;;;;;;;16.70;8.95;;;13.60;89.30;;;;;;5032872;28;20041;-79
2023/05/31 06:32:30;;;;;;;17.27;8.98;;;13.70;89.10;;;;;;5032630;28;20037;-81
2023/05/31 06:34:56;;;;;;;17.08;8.57;;;13.70;89.00;;;;;;5016161;28;20099;-80
2023/05/31 06:37:22;;;;;;;16.63;7.88;;;13.80;88.80;;;;;;5032371;28;20044;-80
2023/05/31 06:39:49;;;;;;;14.65;7.95;;;13.90;88.70;;;;;;5049176;28;20044;-81
2023/05/31 06:42:15;;;;;;;16.40;8.48;;;14.00;88.40;;;;;;5049122;28;20041;-78
2023/05/31 06:44:42;;;;;;;16.65;8.63;;;14.00;87.90;;;;;;5049037;28;20091;-81
2023/05/31 06:47:08;;;;;;;14.20;8.02;;;14.00;87.80;;;;;;5032554;28;20033;-80
2023/05/31 06:49:33;;;;;;;18.83;7.78;;;14.10;87.60;;;;;;5016234;28;20053;-80
2023/05/31 06:51:59;;;;;;;15.38;7.63;;;14.10;87.50;;;;;;5032619;28;20128;-80
2023/05/31 06:54:26;;;;;;;14.18;6.80;;;14.30;87.30;;;;;;5016076;28;20050;-81
2023/05/31 06:56:52;;;;;;;13.07;7.50;;;14.30;87.00;;;;;;5032329;28;20038;-81
2023/05/31 06:59:18;;;;;;;15.32;6.93;;;14.40;86.80;;;;;;5032592;28;20033;-80
2023/05/31 07:01:43;;;;;;;11.88;6.25;;;14.50;86.80;;;;;;5032740;28;20037;-81
2023/05/31 07:04:09;;;;;;;16.38;7.55;;;14.60;86.10;;;;;;5015828;28;20715;-81
2023/05/31 07:06:37;;;;;;;14.20;7.20;;;14.60;85.50;;;;;;5015927;28;20045;-81
2023/05/31 07:09:04;;;;;;;15.07;6.90;;;14.60;85.40;;;;;;5016014;28;20037;-81
2023/05/31 07:11:30;;;;;;;12.60;6.65;;;14.70;85.30;;;;;;5032553;28;20192;-80
2023/05/31 07:14:01;;;;;;;12.18;7.05;;;14.80;84.90;;;;;;5016220;28;20505;-80
2023/05/31 07:16:29;;;;;;;14.07;7.55;;;14.80;84.80;;;;;;5000324;28;20057;-81
2023/05/31 07:18:55;;;;;;;12.93;6.40;;;15.00;84.90;;;;;;5033527;28;20128;-80
2023/05/31 07:21:21;;;;;;;13.85;7.18;;;15.00;84.30;;;;;;5034250;28;20489;-80
2023/05/31 07:23:47;;;;;;;12.77;6.13;;;15.00;84.00;;;;;;5037429;28;20124;-80
2023/05/31 07:26:15;;;;;;;11.85;6.47;;;15.20;84.00;;;;;;5054009;28;20433;-80
2023/05/31 07:28:44;;;;;;;14.57;6.25;;;15.20;83.90;;;;;;5004205;28;20128;-80
2023/05/31 07:31:10;;;;;;;13.70;6.82;;;15.30;83.90;;;;;;5053487;28;20064;-81
2023/05/31 07:33:36;;;;;;;17.75;6.85;;;15.40;83.80;;;;;;5052619;28;20041;-80
2023/05/31 07:36:01;;;;;;;14.43;5.78;;;15.50;83.60;;;;;;5035904;28;20056;-81
2023/05/31 07:38:28;;;;;;;11.18;6.13;;;15.60;83.00;;;;;;5019573;28;20126;-81
2023/05/31 07:40:53;;;;;;;9.30;5.72;;;15.70;82.60;;;;;;5019571;28;20037;-81
2023/05/31 07:43:22;;;;;;;11.52;5.40;;;15.70;82.30;;;;;;5036320;28;20441;-81
2023/05/31 07:45:48;;;;;;;10.57;5.45;;;15.80;82.00;;;;;;5035942;28;20509;-81
2023/05/31 07:48:14;;;;;;;9.65;5.28;;;15.90;81.50;;;;;;5035723;28;20044;-81
2023/05/31 07:50:40;;;;;;;10.00;4.47;;;16.00;81.40;;;;;;5036423;28;20030;-81
2023/05/31 07:53:05;;;;;;;10.13;5.72;;;16.10;81.10;;;;;;5020024;28;20052;-81
2023/05/31 07:55:31;;;;;;;12.00;5.82;;;16.20;80.90;;;;;;5052137;28;20493;-82
2023/05/31 07:57:57;;;;;;;13.50;5.63;;;16.20;81.20;;;;;;5051911;28;20045;-81
2023/05/31 08:00:23;;;;;;;11.30;5.32;;;16.30;81.00;;;;;;5035781;28;20129;-81
2023/05/31 08:02:49;;;;;;;10.77;5.57;;;16.40;80.70;;;;;;5035346;28;20444;-82
2023/05/31 08:05:15;;;;;;;9.02;4.97;;;16.40;80.30;;;;;;5035629;28;20042;-82
2023/05/31 08:07:41;;;;;;;8.55;4.93;;;16.40;80.20;;;;;;5051849;28;20073;-82
2023/05/31 08:10:07;;;;;;;8.00;4.63;;;16.60;80.50;;;;;;5035469;28;20072;-82
2023/05/31 08:12:33;;;;;;;11.75;4.43;;;16.70;80.00;;;;;;5002720;28;20045;-81
2023/05/31 08:14:58;;;;;;;6.72;4.18;;;16.70;79.90;;;;;;5035380;28;20037;-82
2023/05/31 08:17:25;;;;;;;10.73;5.38;;;16.70;79.60;;;;;;5051566;28;20410;-80
2023/05/31 08:19:51;;;;;;;6.13;3.90;;;16.70;79.50;;;;;;5018620;28;20045;-80
2023/05/31 08:22:16;;;;;;;7.05;3.80;;;16.70;79.50;;;;;;5034953;28;20130;-81
2023/05/31 08:24:42;;;;;;;9.32;5.00;;;16.80;79.40;;;;;;5018583;28;20048;-80
2023/05/31 08:27:07;;;;;;;7.70;3.88;;;16.90;78.90;;;;;;5034952;28;20409;-81
2023/05/31 08:29:34;;;;;;;7.95;3.45;;;17.00;78.80;;;;;;5051513;28;20041;-81
2023/05/31 08:32:00;;;;;;;8.18;3.75;;;17.00;78.80;;;;;;5051602;28;20041;-81
2023/05/31 08:34:27;;;;;;;7.82;3.63;;;17.00;78.90;;;;;;5050635;28;20087;-80
2023/05/31 08:36:54;;;;;;;6.68;3.55;;;16.90;79.30;;;;;;5051360;28;20077;-82
2023/05/31 08:39:20;;;;;;;9.25;4.18;;;16.90;79.00;;;;;;5034909;28;20433;-81
2023/05/31 08:41:58;;;;;;;10.30;3.80;;;16.90;79.60;;;;;;5034826;28;20037;-85
2023/05/31 08:44:24;;;;;;;10.23;4.07;;;16.90;79.50;;;;;;5034655;28;20124;-82
2023/05/31 08:46:49;;;;;;;9.70;4.18;;;17.00;79.20;;;;;;5018225;28;20132;-82
2023/05/31 08:49:16;;;;;;;9.13;4.47;;;17.10;78.90;;;;;;5051114;28;20041;-81
2023/05/31 08:51:47;;;;;;;11.77;5.03;;;17.10;78.70;;;;;;5051307;28;20040;-82
2023/05/31 08:54:17;;;;;;;8.88;4.80;;;17.20;78.80;;;;;;5034440;28;20042;-85
2023/05/31 08:56:45;;;;;;;10.15;5.22;;;17.10;78.70;;;;;;5034435;28;20041;-84
2023/05/31 08:59:12;;;;;;;7.57;5.18;;;17.10;78.00;;;;;;5001903;28;20110;-84
2023/05/31 09:01:38;;;;;;;12.20;5.43;;;17.10;78.30;;;;;;5034216;28;20041;-84
2023/05/31 09:04:08;;;;;;;12.13;5.00;;;17.10;78.50;;;;;;5033955;28;20490;-84
2023/05/31 09:06:34;;;;;;;11.70;5.35;;;17.20;78.10;;;;;;5050506;28;20124;-85
2023/05/31 09:09:01;;;;;;;10.30;4.93;;;17.30;78.30;;;;;;5017705;28;20073;-85
2023/05/31 09:11:27;;;;;;;11.43;5.22;;;17.30;77.50;;;;;;5034159;28;20076;-83
2023/05/31 09:13:53;;;;;;;9.95;5.50;;;17.30;77.80;;;;;;5034024;28;20080;-85
2023/05/31 09:16:25;;;;;;;11.25;6.10;;;17.50;77.80;;;;;;5033821;28;20077;-84
2023/05/31 09:19:01;;;;;;;11.18;5.68;;;17.50;77.20;;;;;;5050873;28;20044;-84
2023/05/31 09:21:26;;;;;;;12.63;5.22;;;17.50;76.80;;;;;;5034114;28;20094;-83
2023/05/31 09:23:54;;;;;;;14.38;6.35;;;17.60;76.90;;;;;;5033853;28;20509;-83
2023/05/31 09:26:21;;;;;;;11.82;6.18;;;17.70;76.70;;;;;;5017314;28;20041;-85
2023/05/31 09:28:54;;;;;;;12.18;7.25;;;17.70;75.80;;;;;;5033994;28;20155;-84
2023/05/31 09:31:20;;;;;;;9.93;5.13;;;17.70;76.20;;;;;;5033674;28;20037;-85
2023/05/31 09:33:48;;;;;;;10.02;6.18;;;17.70;76.10;;;;;;5033409;28;20072;-84
2023/05/31 09:36:14;;;;;;;14.18;5.88;;;17.70;76.00;;;;;;5017231;28;20041;-85
2023/05/31 09:38:40;;;;;;;13.20;5.43;;;17.70;76.10;;;;;;5017342;28;20120;-84
2023/05/31 09:41:18;;;;;;;13.23;6.13;;;17.90;76.10;;;;;;5017185;28;20123;-85
2023/05/31 09:43:46;;;;;;;14.93;6.63;;;17.90;76.00;;;;;;5016905;28;20489;-87
2023/05/31 09:46:13;;;;;;;14.93;6.80;;;17.90;75.30;;;;;;5033307;28;20077;-85
2023/05/31 09:48:39;;;;;;;13.50;6.60;;;18.00;75.60;;;;;;5017026;28;20049;-86
2023/05/31 09:51:09;;;;;;;14.48;7.07;;;18.10;75.80;;;;;;5017011;28;20100;-86
2023/05/31 09:53:45;;;;;;;15.20;6.85;;;18.40;75.60;;;;;;5033816;28;20394;-85
2023/05/31 09:56:17;;;;;;;14.63;7.25;;;18.40;74.60;;;;;;5033356;28;20051;-87
2023/05/31 09:58:43;;;;;;;12.73;7.07;;;18.50;74.10;;;;;;5017184;28;20037;-85
2023/05/31 10:01:09;;;;;;;12.82;7.13;;;18.60;74.20;;;;;;4984275;28;20441;-85
2023/05/31 10:03:36;;;;;;;16.75;7.53;;;18.60;73.30;;;;;;5032994;28;20401;-84
2023/05/31 10:06:03;;;;;;;10.70;6.75;;;18.70;73.30;;;;;;5017093;28;20041;-86
2023/05/31 10:08:31;;;;;;;12.68;7.13;;;18.80;73.80;;;;;;5033016;28;20120;-86
2023/05/31 10:11:00;;;;;;;12.40;6.88;;;18.90;72.90;;;;;;5032927;28;20045;-86
2023/05/31 10:13:30;;;;;;;14.65;7.78;;;18.90;73.10;;;;;;5033237;28;20512;-87
2023/05/31 10:16:01;;;;;;;14.43;7.25;;;18.90;72.60;;;;;;5033067;28;20045;-87
2023/05/31 10:18:33;;;;;;;12.43;7.25;;;18.80;71.50;;;;;;5033359;28;20120;-86
2023/05/31 10:21:00;;;;;;;10.35;7.05;;;18.80;72.10;;;;;;5032791;28;20037;-86
2023/05/31 10:23:27;;;;;;;9.68;6.85;;;18.90;72.20;;;;;;5032639;28;20489;-87
2023/05/31 10:26:13;;;;;;;13.48;6.70;;;18.90;71.20;;;;;;5032546;28;20354;-86
2023/05/31 10:28:55;;;;;;;13.80;7.85;;;18.90;70.50;;;;;;5016580;28;20378;-86
2023/05/31 10:31:25;;;;;;;9.68;7.20;;;18.70;70.90;;;;;;5032729;28;20037;-87
2023/05/31 10:33:58;;;;;;;11.95;6.80;;;18.60;70.80;;;;;;5016363;28;20131;-87
2023/05/31 10:36:23;;;;;;;12.10;6.75;;;18.60;71.10;;;;;;5032662;28;20085;-86
2023/05/31 10:39:03;;;;;;;11.05;7.25;;;18.50;71.20;;;;;;5032635;28;20072;-87
2023/05/31 10:41:39;;;;;;;12.80;6.72;;;18.50;71.60;;;;;;5032920;28;20119;-85
2023/05/31 10:44:10;;;;;;;12.38;7.93;;;18.60;71.80;;;;;;5032706;28;20363;-83
2023/05/31 10:46:40;;;;;;;11.10;7.35;;;18.70;71.50;;;;;;5032330;28;20521;-83
2023/05/31 10:49:10;;;;;;;9.35;6.50;;;18.80;70.70;;;;;;5032646;28;20045;-82
2023/05/31 10:51:46;;;;;;;7.95;5.90;;;18.80;69.40;;;;;;5032502;28;20149;-82
2023/05/31 10:54:27;;;;;;;11.52;7.30;;;18.80;69.80;;;;;;5016147;28;20041;-86
2023/05/31 10:56:53;;;;;;;8.25;6.68;;;18.90;70.40;;;;;;5015592;28;20045;-84
2023/05/31 10:59:19;;;;;;;8.85;6.55;;;18.90;70.70;;;;;;5016028;28;20042;-82
2023/05/31 11:01:45;;;;;;;10.23;7.22;;;19.00;70.00;;;;;;5015753;28;20448;-83
2023/05/31 11:04:23;;;;;;;11.25;7.03;;;19.00;69.10;;;;;;4999320;28;20489;-84
2023/05/31 11:06:54;;;;;;;11.70;6.72;;;19.10;69.60;;;;;;5016178;28;20084;-83
2023/05/31 11:09:21;;;;;;;11.23;7.18;;;19.20;69.30;;;;;;5032233;28;20046;-84
2023/05/31 11:11:50;;;;;;;11.68;7.20;;;19.40;69.70;;;;;;5016384;28;20048;-84
2023/05/31 11:14:16;;;;;;;9.77;6.85;;;19.30;69.30;;;;;;5032281;28;20567;-84
2023/05/31 11:16:48;;;;;;;10.73;6.32;;;19.40;69.40;;;;;;5032075;28;20045;-84
2023/05/31 11:19:16;;;;;;;12.25;7.55;;;19.50;68.60;;;;;;5015625;28;20120;-84
2023/05/31 11:21:48;;;;;;;11.27;7.10;;;19.60;69.10;;;;;;4999665;28;20037;-83
2023/05/31 11:24:29;;;;;;;12.23;6.45;;;19.70;68.00;;;;;;5015875;28;20072;-84
2023/05/31 11:27:00;;;;;;;9.85;6.38;;;19.70;67.60;;;;;;5016066;28;20050;-83
2023/05/31 11:29:44;;;;;;;10.73;5.97;;;19.70;67.70;;;;;;5032086;28;20042;-83
2023/05/31 11:32:11;;;;;;;11.48;6.72;;;19.70;68.30;;;;;;5032570;28;20037;-82
2023/05/31 11:34:56;;;;;;;10.30;6.22;;;19.70;68.60;;;;;;5032145;28;20107;-84
2023/05/31 11:37:29;;;;;;;11.40;6.40;;;19.80;68.30;;;;;;5020923;28;20042;-85
2023/05/31 11:39:56;;;;;;;11.40;6.43;;;19.90;68.50;;;;;;4997458;28;20073;-84
2023/05/31 11:42:22;;;;;;;8.85;5.60;;;20.10;67.90;;;;;;5012665;28;20080;-86
2023/05/31 11:44:49;;;;;;;8.80;5.68;;;20.10;68.20;;;;;;4996604;28;20446;-87
2023/05/31 11:47:25;;;;;;;10.15;6.78;;;20.20;66.70;;;;;;5012224;28;20084;-88
2023/05/31 11:49:51;;;;;;;9.38;6.00;;;20.20;67.40;;;;;;5012223;28;20045;-88
2023/05/31 11:52:20;;;;;;;13.05;6.60;;;20.40;66.90;;;;;;4996169;28;20042;-88
2023/05/31 11:54:48;;;;;;;8.60;5.65;;;20.60;67.30;;;;;;4996021;28;20041;-86
2023/05/31 11:57:20;;;;;;;10.23;6.32;;;20.80;66.50;;;;;;4996437;28;20096;-85
2023/05/31 11:59:46;;;;;;;8.38;6.10;;;20.80;66.00;;;;;;4980705;28;20042;-87
2023/05/31 12:02:12;;;;;;;9.57;6.32;;;20.90;65.40;;;;;;4997214;28;20061;-86
2023/05/31 12:04:41;;;;;;;11.27;6.95;;;20.90;64.80;;;;;;5035838;28;20481;-86
2023/05/31 12:07:22;;;;;;;10.90;7.38;;;21.00;64.80;;;;;;5019240;28;20045;-86
2023/05/31 12:09:48;;;;;;;9.75;6.95;;;21.00;64.50;;;;;;5006419;28;20183;-86
2023/05/31 12:12:14;;;;;;;9.75;7.05;;;21.00;64.20;;;;;;5039590;28;20079;-86
2023/05/31 12:14:54;;;;;;;16.08;7.53;;;21.00;63.90;;;;;;5022728;28;20045;-86
2023/05/31 12:17:20;;;;;;;17.45;8.57;;;21.10;63.70;;;;;;5038798;28;20095;-86
2023/05/31 12:19:49;;;;;;;13.10;7.80;;;21.20;63.80;;;;;;5022220;28;20485;-86
2023/05/31 12:22:15;;;;;;;13.65;8.00;;;21.30;63.20;;;;;;5038548;28;20040;-85
2023/05/31 12:24:52;;;;;;;10.50;7.45;;;21.30;63.70;;;;;;5038650;28;20451;-86
2023/05/31 12:27:20;;;;;;;10.75;8.38;;;21.40;63.00;;;;;;5038218;28;20041;-85
2023/05/31 12:29:46;;;;;;;9.82;6.63;;;21.40;63.10;;;;;;5038104;28;20045;-85
2023/05/31 12:32:12;;;;;;;12.48;7.38;;;21.40;62.10;;;;;;5038449;28;20041;-85
2023/05/31 12:34:39;;;;;;;8.93;6.38;;;21.40;62.30;;;;;;5022192;28;20044;-84
2023/05/31 12:37:07;;;;;;;12.70;7.50;;;21.40;62.00;;;;;;5021964;28;20041;-85
2023/05/31 12:39:36;;;;;;;14.80;8.23;;;21.50;62.40;;;;;;5005994;28;20104;-85
2023/05/31 12:42:06;;;;;;;12.52;7.70;;;21.50;61.90;;;;;;5022237;28;20477;-85